createdAt,value
2022-10-06T00:00:49.104Z,1.85
2022-10-06T00:03:16.492Z,2.30
2022-10-06T00:05:44.053Z,1.85
2022-10-06T00:08:11.516Z,2.28
2022-10-06T00:10:38.324Z,2.30
2022-10-06T00:13:04.899Z,1.60
2022-10-06T00:15:32.946Z,2.78
2022-10-06T00:17:59.775Z,2.45
2022-10-06T00:20:27.102Z,1.67
2022-10-06T00:22:53.887Z,2.10
2022-10-06T00:25:23.667Z,2.28
2022-10-06T00:27:52.135Z,1.88
2022-10-06T00:30:24.214Z,2.00
2022-10-06T00:32:57.166Z,2.42
2022-10-06T00:35:25.763Z,1.93
2022-10-06T00:37:53.216Z,2.38
2022-10-06T00:40:20.641Z,1.95
2022-10-06T00:42:56.430Z,2.03
2022-10-06T00:45:41.734Z,2.30
2022-10-06T00:48:16.355Z,2.87
2022-10-06T00:50:44.728Z,2.47
2022-10-06T00:53:16.798Z,2.00
2022-10-06T00:55:44.363Z,2.15
2022-10-06T00:58:12.969Z,2.25
2022-10-06T01:00:43.391Z,2.00
2022-10-06T01:03:17.344Z,2.70
2022-10-06T01:05:50.489Z,2.00
2022-10-06T01:08:18.371Z,2.60
2022-10-06T01:10:48.518Z,1.80
2022-10-06T01:13:17.688Z,1.73
2022-10-06T01:16:03.635Z,1.80
2022-10-06T01:18:31.998Z,2.13
2022-10-06T01:21:21.501Z,2.03
2022-10-06T01:23:49.792Z,1.85
2022-10-06T01:26:18.669Z,2.40
2022-10-06T01:28:46.844Z,1.85
2022-10-06T01:31:14.378Z,1.90
2022-10-06T01:33:41.755Z,1.80
2022-10-06T01:36:08.391Z,2.10
2022-10-06T01:38:36.487Z,2.20
2022-10-06T01:41:03.567Z,1.70
2022-10-06T01:43:30.212Z,1.98
2022-10-06T01:45:57.850Z,1.83
2022-10-06T01:48:24.832Z,2.08
2022-10-06T01:50:51.490Z,2.00
2022-10-06T01:53:18.086Z,2.03
2022-10-06T01:55:44.669Z,2.20
2022-10-06T01:58:11.944Z,1.60
2022-10-06T02:00:39.447Z,1.60
2022-10-06T02:03:07.327Z,1.50
2022-10-06T02:05:34.920Z,2.00
2022-10-06T02:08:02.692Z,1.30
2022-10-06T02:10:29.947Z,2.20
2022-10-06T02:12:57.111Z,2.10
2022-10-06T02:15:24.137Z,1.83
2022-10-06T02:17:50.715Z,1.90
2022-10-06T02:20:17.505Z,2.05
2022-10-06T02:22:44.572Z,2.58
2022-10-06T02:25:12.304Z,1.90
2022-10-06T02:27:39.424Z,1.87
2022-10-06T02:30:07.767Z,2.05
2022-10-06T02:32:36.975Z,2.00
2022-10-06T02:35:04.621Z,1.63
2022-10-06T02:37:31.393Z,1.70
2022-10-06T02:39:57.947Z,1.77
2022-10-06T02:42:24.563Z,1.90
2022-10-06T02:44:52.168Z,1.60
2022-10-06T02:47:19.382Z,1.98
2022-10-06T02:49:46.333Z,1.70
2022-10-06T02:52:13.067Z,1.90
2022-10-06T02:54:39.656Z,1.58
2022-10-06T02:57:06.199Z,1.90
2022-10-06T02:59:33.875Z,1.92
2022-10-06T03:02:00.544Z,1.65
2022-10-06T03:04:27.242Z,1.77
2022-10-06T03:06:53.945Z,1.70
2022-10-06T03:09:20.709Z,2.30
2022-10-06T03:11:47.357Z,2.10
2022-10-06T03:14:17.747Z,1.83
2022-10-06T03:16:47.313Z,1.60
2022-10-06T03:19:13.897Z,1.52
2022-10-06T03:21:43.026Z,2.28
2022-10-06T03:24:10.838Z,1.77
2022-10-06T03:26:40.344Z,1.88
2022-10-06T03:29:11.279Z,1.93
2022-10-06T03:31:38.925Z,1.70
2022-10-06T03:34:05.953Z,1.90
2022-10-06T03:36:33.860Z,2.10
2022-10-06T03:39:01.742Z,1.75
2022-10-06T03:41:31.175Z,2.47
2022-10-06T03:43:59.082Z,2.00
2022-10-06T03:46:28.174Z,1.80
2022-10-06T03:48:57.077Z,1.52
2022-10-06T03:51:29.554Z,2.25
2022-10-06T03:53:57.489Z,1.97
2022-10-06T03:56:25.228Z,2.13
2022-10-06T03:59:00.310Z,1.80
2022-10-06T04:01:27.014Z,2.25
2022-10-06T04:03:58.377Z,2.35
2022-10-06T04:06:26.897Z,2.90
2022-10-06T04:08:54.043Z,1.90
2022-10-06T04:11:29.646Z,1.92
2022-10-06T04:14:08.328Z,1.85
2022-10-06T04:16:37.765Z,1.50
2022-10-06T04:19:07.059Z,1.77
2022-10-06T04:21:36.730Z,1.70
2022-10-06T04:24:04.483Z,1.75
2022-10-06T04:26:34.559Z,1.67
2022-10-06T04:29:01.140Z,2.17
2022-10-06T04:31:33.679Z,1.67
2022-10-06T04:34:01.569Z,2.42
2022-10-06T04:36:31.266Z,1.98
2022-10-06T04:39:00.389Z,1.83
2022-10-06T04:41:35.734Z,1.65
2022-10-06T04:44:04.233Z,2.27
2022-10-06T04:46:47.127Z,2.08
2022-10-06T04:49:19.434Z,2.17
2022-10-06T04:51:48.260Z,1.95
2022-10-06T04:54:14.896Z,1.75
2022-10-06T04:56:41.491Z,2.17
2022-10-06T04:59:08.048Z,2.08
2022-10-06T05:01:36.688Z,2.08
2022-10-06T05:04:06.047Z,1.65
2022-10-06T05:06:41.290Z,2.08
2022-10-06T05:09:10.954Z,1.90
2022-10-06T05:11:38.123Z,2.08
2022-10-06T05:14:05.007Z,1.88
2022-10-06T05:16:31.896Z,2.08
2022-10-06T05:18:59.071Z,1.90
2022-10-06T05:21:31.060Z,1.70
2022-10-06T05:23:58.479Z,2.30
2022-10-06T05:26:27.979Z,2.28
2022-10-06T05:28:54.688Z,2.03
2022-10-06T05:31:29.547Z,1.98
2022-10-06T05:33:57.458Z,2.20
2022-10-06T05:36:26.441Z,2.22
2022-10-06T05:38:53.491Z,2.20
2022-10-06T05:41:25.453Z,1.98
2022-10-06T05:43:52.955Z,1.92
2022-10-06T05:46:24.971Z,2.00
2022-10-06T05:48:56.958Z,2.30
2022-10-06T05:51:30.633Z,2.25
2022-10-06T05:53:59.104Z,2.17
2022-10-06T05:56:30.884Z,1.92
2022-10-06T05:58:58.771Z,1.77
2022-10-06T06:01:26.762Z,1.67
2022-10-06T06:04:02.786Z,2.42
2022-10-06T06:06:38.079Z,2.00
2022-10-06T06:09:13.481Z,2.03
2022-10-06T06:11:42.871Z,1.67
2022-10-06T06:14:11.704Z,1.90
2022-10-06T06:16:39.817Z,1.90
2022-10-06T06:19:07.843Z,1.80
2022-10-06T06:21:34.572Z,2.25
2022-10-06T06:24:02.051Z,1.80
2022-10-06T06:26:31.012Z,1.83
2022-10-06T06:29:02.530Z,2.20
2022-10-06T06:31:31.558Z,2.28
2022-10-06T06:34:00.001Z,2.20
2022-10-06T06:36:31.865Z,2.00
2022-10-06T06:38:58.844Z,2.17
2022-10-06T06:41:28.469Z,2.20
2022-10-06T06:43:55.935Z,2.08
2022-10-06T06:46:26.388Z,2.10
2022-10-06T06:48:54.570Z,2.20
2022-10-06T06:51:23.916Z,2.45
2022-10-06T06:53:51.620Z,2.20
2022-10-06T06:56:18.661Z,2.10
2022-10-06T06:58:47.497Z,1.95
2022-10-06T07:01:17.164Z,1.80
2022-10-06T07:03:57.542Z,2.40
2022-10-06T07:06:28.577Z,2.40
2022-10-06T07:08:59.491Z,1.95
2022-10-06T07:11:32.383Z,2.53
2022-10-06T07:14:03.722Z,3.03
2022-10-06T07:16:49.795Z,2.50
2022-10-06T07:19:37.434Z,2.15
2022-10-06T07:22:33.235Z,2.60
2022-10-06T07:25:09.864Z,2.35
2022-10-06T07:27:45.574Z,2.30
2022-10-06T07:30:35.010Z,2.15
2022-10-06T07:33:05.004Z,2.17
2022-10-06T07:35:31.603Z,2.13
2022-10-06T07:38:02.168Z,2.50
2022-10-06T07:40:28.738Z,2.03
2022-10-06T07:42:55.287Z,2.60
2022-10-06T07:45:38.627Z,2.47
2022-10-06T07:48:06.257Z,2.67
2022-10-06T07:50:33.379Z,2.72
2022-10-06T07:53:07.549Z,2.30
2022-10-06T07:55:35.125Z,2.55
2022-10-06T07:58:01.790Z,2.58
2022-10-06T08:00:28.562Z,2.88
2022-10-06T08:02:55.242Z,2.55
2022-10-06T08:05:21.847Z,1.97
2022-10-06T08:07:48.404Z,1.83
2022-10-06T08:10:18.330Z,2.97
2022-10-06T08:12:44.904Z,2.38
2022-10-06T08:15:13.672Z,2.13
2022-10-06T08:17:40.802Z,2.73
2022-10-06T08:20:10.180Z,2.80
2022-10-06T08:22:38.667Z,2.53
2022-10-06T08:25:07.159Z,2.53
2022-10-06T08:27:35.281Z,3.00
2022-10-06T08:30:02.433Z,2.33
2022-10-06T08:32:29.141Z,2.08
2022-10-06T08:34:56.199Z,2.25
2022-10-06T08:37:27.260Z,2.47
2022-10-06T08:39:55.126Z,2.15
2022-10-06T08:42:35.764Z,2.13
2022-10-06T08:45:05.905Z,1.98
2022-10-06T08:47:36.968Z,2.15
2022-10-06T08:50:09.387Z,1.98
2022-10-06T08:52:47.370Z,2.83
2022-10-06T08:55:38.624Z,2.00
2022-10-06T08:58:50.525Z,2.63
2022-10-06T09:01:28.964Z,2.30
2022-10-06T09:04:01.917Z,1.83
2022-10-06T09:06:44.373Z,2.03
2022-10-06T09:09:21.277Z,2.40
2022-10-06T09:11:57.788Z,2.63
2022-10-06T09:14:38.549Z,2.42
2022-10-06T09:17:12.795Z,2.65
2022-10-06T09:19:53.684Z,3.00
2022-10-06T09:22:22.992Z,2.43
2022-10-06T09:24:55.938Z,2.30
2022-10-06T09:27:36.593Z,2.50
2022-10-06T09:30:04.751Z,2.33
2022-10-06T09:32:33.162Z,2.50
2022-10-06T09:34:59.970Z,2.47
2022-10-06T09:37:27.556Z,2.50
2022-10-06T09:39:54.596Z,2.90
2022-10-06T09:42:26.202Z,2.70
2022-10-06T09:45:00.833Z,2.08
2022-10-06T09:47:38.849Z,2.77
2022-10-06T09:50:17.449Z,2.10
2022-10-06T09:53:16.096Z,2.90
2022-10-06T09:55:44.717Z,2.60
2022-10-06T09:58:31.033Z,2.20
2022-10-06T10:01:02.538Z,2.27
2022-10-06T10:04:08.600Z,2.47
2022-10-06T10:06:37.912Z,2.65
2022-10-06T10:09:23.669Z,2.22
2022-10-06T10:12:30.991Z,2.13
2022-10-06T10:15:11.265Z,1.90
2022-10-06T10:17:51.247Z,2.47
2022-10-06T10:20:35.432Z,2.22
2022-10-06T10:23:30.898Z,1.73
2022-10-06T10:26:29.936Z,2.42
2022-10-06T10:29:35.111Z,1.90
2022-10-06T10:32:24.826Z,1.83
2022-10-06T10:35:20.038Z,2.13
2022-10-06T10:38:04.931Z,1.77
2022-10-06T10:40:34.304Z,1.40
2022-10-06T10:43:17.744Z,2.00
2022-10-06T10:45:59.566Z,1.83
2022-10-06T10:48:42.020Z,1.80
2022-10-06T10:51:19.679Z,1.50
2022-10-06T10:53:57.486Z,1.75
2022-10-06T10:56:26.188Z,1.53
2022-10-06T10:58:59.180Z,1.83
2022-10-06T11:01:29.788Z,1.55
2022-10-06T11:03:58.240Z,1.90
2022-10-06T11:06:40.120Z,1.35
2022-10-06T11:09:12.193Z,1.50
2022-10-06T11:11:52.257Z,1.70
2022-10-06T11:14:38.683Z,1.67
2022-10-06T11:17:15.845Z,1.77
2022-10-06T11:20:08.919Z,1.75
2022-10-06T11:22:47.698Z,1.77
2022-10-06T11:25:23.001Z,1.50
2022-10-06T11:28:03.099Z,1.75
2022-10-06T11:30:33.257Z,1.38
2022-10-06T11:33:20.532Z,1.75
2022-10-06T11:35:48.701Z,1.90
2022-10-06T11:38:24.637Z,1.67
2022-10-06T11:41:23.418Z,1.65
2022-10-06T11:44:23.807Z,1.90
2022-10-06T11:46:55.795Z,1.48
2022-10-06T11:49:28.461Z,1.93
2022-10-06T11:52:14.958Z,1.73
2022-10-06T11:54:45.020Z,1.73
2022-10-06T11:57:29.470Z,1.58
2022-10-06T12:00:17.309Z,1.58
2022-10-06T12:02:46.156Z,1.67
2022-10-06T12:05:55.209Z,2.03
2022-10-06T12:08:00.201Z,1.67
2022-10-06T12:10:29.921Z,1.58
2022-10-06T12:19:42.446Z,1.58
2022-10-06T12:22:26.010Z,1.95
2022-10-06T12:25:16.898Z,1.73
2022-10-06T12:28:05.858Z,1.60
2022-10-06T12:30:47.874Z,1.53
2022-10-06T12:33:19.359Z,1.60
2022-10-06T12:35:46.335Z,1.83
2022-10-06T12:38:31.371Z,1.75
2022-10-06T12:40:59.326Z,2.00
2022-10-06T12:43:31.511Z,1.83
2022-10-06T12:46:11.733Z,1.85
2022-10-06T12:49:09.212Z,2.38
2022-10-06T12:51:46.829Z,1.85
2022-10-06T12:54:43.031Z,1.52
2022-10-06T12:57:20.556Z,1.73
2022-10-06T12:59:49.440Z,1.55
2022-10-06T13:02:26.308Z,1.70
2022-10-06T13:04:57.542Z,1.77
2022-10-06T13:07:33.075Z,1.77
2022-10-06T13:10:14.930Z,1.43
2022-10-06T13:12:46.661Z,1.63
2022-10-06T13:15:35.482Z,1.80
2022-10-06T13:18:15.554Z,1.85
2022-10-06T13:20:50.320Z,1.92
2022-10-06T13:23:24.476Z,1.90
2022-10-06T13:26:22.090Z,2.10
2022-10-06T13:28:56.358Z,2.25
2022-10-06T13:31:34.930Z,1.88
2022-10-06T13:34:12.663Z,1.80
2022-10-06T13:36:42.001Z,2.13
2022-10-06T13:39:20.193Z,1.67
2022-10-06T13:42:00.927Z,1.67
2022-10-06T13:44:58.956Z,1.70
2022-10-06T13:47:29.634Z,2.47
2022-10-06T13:50:04.757Z,1.70
2022-10-06T13:52:48.745Z,1.88
2022-10-06T13:55:23.949Z,2.00
2022-10-06T13:58:05.219Z,1.42
2022-10-06T14:00:50.630Z,1.60
2022-10-06T14:03:24.693Z,2.00
2022-10-06T14:06:03.439Z,1.40
2022-10-06T14:08:30.449Z,1.52
2022-10-06T14:11:03.364Z,1.77
2022-10-06T14:13:51.251Z,1.55
2022-10-06T14:16:24.837Z,1.50
2022-10-06T14:18:59.965Z,1.40
2022-10-06T14:21:36.331Z,1.60
2022-10-06T14:24:20.990Z,1.40
2022-10-06T14:26:49.739Z,1.80
2022-10-06T14:29:17.645Z,1.67
2022-10-06T14:31:45.338Z,2.03
2022-10-06T14:34:15.226Z,1.48
2022-10-06T14:36:43.583Z,1.90
2022-10-06T14:39:13.184Z,1.85
2022-10-06T14:41:39.757Z,1.50
2022-10-06T14:44:10.147Z,1.80
2022-10-06T14:46:38.273Z,1.40
2022-10-06T14:49:05.922Z,1.65
2022-10-06T14:51:36.549Z,1.48
2022-10-06T14:54:04.767Z,1.63
2022-10-06T14:56:33.592Z,1.63
2022-10-06T14:59:04.585Z,1.80
2022-10-06T15:01:35.933Z,1.50
2022-10-06T15:04:05.783Z,1.50
2022-10-06T15:06:51.352Z,1.70
2022-10-06T15:09:17.960Z,1.40
2022-10-06T15:11:44.919Z,1.63
2022-10-06T15:14:11.673Z,1.50
2022-10-06T15:16:41.988Z,1.25
2022-10-06T15:19:10.867Z,1.30
2022-10-06T15:21:41.700Z,1.80
2022-10-06T15:24:12.366Z,1.35
2022-10-06T15:26:57.664Z,1.15
2022-10-06T15:29:24.290Z,1.80
2022-10-06T15:31:54.880Z,1.40
2022-10-06T15:34:25.072Z,1.70
2022-10-06T15:36:53.208Z,1.50
2022-10-06T15:39:23.526Z,1.35
2022-10-06T15:41:50.691Z,1.50
2022-10-06T15:44:19.436Z,1.60
2022-10-06T15:46:51.466Z,1.98
2022-10-06T15:49:20.514Z,1.83
2022-10-06T15:51:52.687Z,1.70
2022-10-06T15:54:30.134Z,1.40
2022-10-06T15:56:59.094Z,1.60
2022-10-06T15:59:27.721Z,1.50
2022-10-06T16:02:04.032Z,1.58
2022-10-06T16:04:39.631Z,1.88
2022-10-06T16:07:14.274Z,1.77
2022-10-06T16:09:49.200Z,1.47
2022-10-06T16:12:21.305Z,1.52
2022-10-06T16:14:47.890Z,2.22
2022-10-06T16:17:15.282Z,1.90
2022-10-06T16:19:42.437Z,1.90
2022-10-06T16:22:14.728Z,1.53
2022-10-06T16:24:41.551Z,1.50
2022-10-06T16:27:12.671Z,1.70
2022-10-06T16:29:39.249Z,1.70
2022-10-06T16:32:05.820Z,1.80
2022-10-06T16:34:33.080Z,1.87
2022-10-06T16:36:59.629Z,1.70
2022-10-06T16:39:26.256Z,2.10
2022-10-06T16:41:53.904Z,1.70
2022-10-06T16:44:20.587Z,1.77
2022-10-06T16:46:47.276Z,1.80
2022-10-06T16:49:14.067Z,1.67
2022-10-06T16:51:42.680Z,2.17
2022-10-06T16:54:11.279Z,1.55
2022-10-06T16:56:41.223Z,1.30
2022-10-06T16:59:26.440Z,1.53
2022-10-06T17:01:53.316Z,1.70
2022-10-06T17:04:22.493Z,1.92
2022-10-06T17:06:54.569Z,2.15
2022-10-06T17:09:23.257Z,1.88
2022-10-06T17:11:58.431Z,1.60
2022-10-06T17:14:25.888Z,1.75
2022-10-06T17:16:54.170Z,2.08
2022-10-06T17:19:22.365Z,1.73
2022-10-06T17:21:54.068Z,1.85
2022-10-06T17:24:27.609Z,2.00
2022-10-06T17:26:54.395Z,1.90
2022-10-06T17:29:22.277Z,1.88
2022-10-06T17:31:58.314Z,1.70
2022-10-06T17:34:30.461Z,1.42
2022-10-06T17:36:59.212Z,2.00
2022-10-06T17:39:25.819Z,1.77
2022-10-06T17:41:53.839Z,1.75
2022-10-06T17:44:24.109Z,1.63
2022-10-06T17:46:53.717Z,1.75
2022-10-06T17:49:21.525Z,1.80
2022-10-06T17:51:49.503Z,2.13
2022-10-06T17:54:19.770Z,1.80
2022-10-06T17:56:52.179Z,1.88
2022-10-06T17:59:23.789Z,1.85
2022-10-06T18:01:53.942Z,1.93
2022-10-06T18:04:20.671Z,1.85
2022-10-06T18:06:47.789Z,1.95
2022-10-06T18:09:15.583Z,1.30
2022-10-06T18:11:44.284Z,1.77
2022-10-06T18:14:12.329Z,1.43
2022-10-06T18:17:00.252Z,1.52
2022-10-06T18:19:32.857Z,1.83
2022-10-06T18:22:10.147Z,1.50
2022-10-06T18:24:37.687Z,1.75
2022-10-06T18:27:06.158Z,1.80
2022-10-06T18:29:35.010Z,1.70
2022-10-06T18:32:40.507Z,1.77
2022-10-06T18:37:35.662Z,1.60
2022-10-06T18:40:06.058Z,1.53
2022-10-06T18:42:33.133Z,1.90
2022-10-06T18:45:18.156Z,2.05
2022-10-06T18:48:03.536Z,1.63
2022-10-06T18:50:30.886Z,1.20
2022-10-06T18:52:57.530Z,1.70
2022-10-06T18:55:24.884Z,1.38
2022-10-06T18:57:51.467Z,1.60
2022-10-06T19:00:18.215Z,2.00
2022-10-06T19:02:48.256Z,1.75
2022-10-06T19:05:17.161Z,1.60
2022-10-06T19:07:44.319Z,1.75
2022-10-06T19:10:11.229Z,1.55
2022-10-06T19:12:37.820Z,2.03
2022-10-06T19:15:04.885Z,1.60
2022-10-06T19:17:32.140Z,1.67
2022-10-06T19:19:58.698Z,1.52
2022-10-06T19:22:25.279Z,2.03
2022-10-06T19:24:52.406Z,1.58
2022-10-06T19:27:23.926Z,1.73
2022-10-06T19:29:54.013Z,1.73
2022-10-06T19:32:25.573Z,1.55
2022-10-06T19:34:52.299Z,1.90
2022-10-06T19:37:19.328Z,1.65
2022-10-06T19:39:47.980Z,1.70
2022-10-06T19:42:35.190Z,1.80
2022-10-06T19:45:02.112Z,1.90
2022-10-06T19:47:28.723Z,2.03
2022-10-06T19:50:00.820Z,2.40
2022-10-06T19:52:31.187Z,1.95
2022-10-06T19:54:57.890Z,2.03
2022-10-06T19:57:25.017Z,2.38
2022-10-06T19:59:51.615Z,2.00
2022-10-06T20:02:18.244Z,2.08
2022-10-06T20:04:45.334Z,2.45
2022-10-06T20:07:12.061Z,1.87
2022-10-06T20:09:38.865Z,1.60
2022-10-06T20:12:05.864Z,2.13
2022-10-06T20:14:32.491Z,2.10
2022-10-06T20:16:59.142Z,2.30
2022-10-06T20:19:25.783Z,2.17
2022-10-06T20:21:53.521Z,2.33
2022-10-06T20:24:25.571Z,2.17
2022-10-06T20:26:53.448Z,2.28
2022-10-06T20:29:25.636Z,2.17
2022-10-06T20:31:54.123Z,2.43
2022-10-06T20:34:23.705Z,2.38
2022-10-06T20:36:55.590Z,3.15
2022-10-06T20:39:41.215Z,2.38
2022-10-06T20:42:13.908Z,2.40
2022-10-06T20:44:42.345Z,2.50
2022-10-06T20:47:10.335Z,2.58
2022-10-06T20:49:37.187Z,2.00
2022-10-06T20:52:04.672Z,2.20
2022-10-06T20:54:34.552Z,2.42
2022-10-06T20:57:03.633Z,1.80
2022-10-06T20:59:31.113Z,1.75
2022-10-06T21:01:59.738Z,2.40
2022-10-06T21:04:30.186Z,2.40
2022-10-06T21:06:57.272Z,2.75
2022-10-06T21:09:24.396Z,1.87
2022-10-06T21:11:51.197Z,2.60
2022-10-06T21:14:18.199Z,2.10
2022-10-06T21:16:47.127Z,2.15
2022-10-06T21:19:18.169Z,2.33
2022-10-06T21:21:49.723Z,2.47
2022-10-06T21:24:16.443Z,2.55
2022-10-06T21:26:43.198Z,2.15
2022-10-06T21:29:15.498Z,2.28
2022-10-06T21:31:43.340Z,2.50
2022-10-06T21:34:10.372Z,2.50
2022-10-06T21:36:37.887Z,2.42
2022-10-06T21:39:05.618Z,2.35
2022-10-06T21:41:40.570Z,2.05
2022-10-06T21:44:17.255Z,2.20
2022-10-06T21:46:49.352Z,2.47
2022-10-06T21:49:18.666Z,2.80
2022-10-06T21:51:46.922Z,2.55
2022-10-06T21:54:14.411Z,2.33
2022-10-06T21:56:41.075Z,2.60
2022-10-06T21:59:09.092Z,2.23
2022-10-06T22:01:38.010Z,2.20
2022-10-06T22:04:05.551Z,2.75
2022-10-06T22:06:34.639Z,2.40
2022-10-06T22:09:01.850Z,2.83
2022-10-06T22:11:30.655Z,2.63
2022-10-06T22:14:00.004Z,2.70
2022-10-06T22:16:28.975Z,2.63
2022-10-06T22:18:55.894Z,3.00
2022-10-06T22:21:31.018Z,2.60
2022-10-06T22:24:11.566Z,2.40
2022-10-06T22:26:39.922Z,2.90
2022-10-06T22:29:09.127Z,2.20
2022-10-06T22:31:38.556Z,3.10
2022-10-06T22:34:05.686Z,3.00
2022-10-06T22:36:33.507Z,2.87
2022-10-06T22:39:00.543Z,2.83
2022-10-06T22:41:27.826Z,2.90
2022-10-06T22:43:58.649Z,2.80
2022-10-06T22:46:27.045Z,2.80
2022-10-06T22:48:53.766Z,2.63
2022-10-06T22:51:20.624Z,3.20
2022-10-06T22:53:47.247Z,3.00
2022-10-06T22:56:13.822Z,3.22
2022-10-06T22:58:42.241Z,3.30
2022-10-06T23:01:14.471Z,2.87
2022-10-06T23:03:41.605Z,2.97
2022-10-06T23:06:11.799Z,3.17
2022-10-06T23:08:39.210Z,3.50
2022-10-06T23:11:09.030Z,3.20
2022-10-06T23:13:36.059Z,3.37
2022-10-06T23:16:07.598Z,3.35
2022-10-06T23:18:36.165Z,2.97
2022-10-06T23:21:22.933Z,2.83
2022-10-06T23:23:52.347Z,2.85
2022-10-06T23:26:19.302Z,3.40
2022-10-06T23:28:49.971Z,2.65
2022-10-06T23:31:16.644Z,3.33
2022-10-06T23:33:43.246Z,2.63
2022-10-06T23:36:11.995Z,2.63
2022-10-06T23:38:39.270Z,3.20
2022-10-06T23:41:06.726Z,2.78
2022-10-06T23:43:34.320Z,3.33
2022-10-06T23:46:01.412Z,3.20
2022-10-06T23:48:28.434Z,3.08
2022-10-06T23:51:00.733Z,3.00
2022-10-06T23:53:30.667Z,3.13
2022-10-06T23:55:57.242Z,3.53
2022-10-06T23:58:23.958Z,2.92
